Time;durP1;ratioP1;P1;durP2;ratioP2;P2;SDS_P1;SDS_P2;PMS_P1;PMS_P2;Temp;Humidity;BMP_temperature;BMP_pressure;BME280_temperature;BME280_humidity;BME280_pressure;Samples;Min_cycle;Max_cycle;Signal;HPM_P1;HPM_P2
2021/03/22 00:01:36;;;;;;;;;;;;;;;25.18;23.53;100061.69;5099218;28;790;-41
2021/03/22 00:04:02;;;;;;;;;;;;;;;25.54;23.12;100073.53;5098510;28;1957;-43
2021/03/22 00:06:27;;;;;;;;;;;;;;;26.12;22.36;100077.28;5098865;28;751;-41
2021/03/22 00:08:56;;;;;;;;;;;;;;;26.32;22.10;100076.63;5098631;28;838;-39
2021/03/22 00:11:21;;;;;;;;;;;;;;;26.04;22.26;100086.34;5078164;28;818;-42
2021/03/22 00:13:46;;;;;;;;;;;;;;;25.85;22.60;100079.69;5078028;28;784;-39
2021/03/22 00:16:12;;;;;;;;;;;;;;;25.83;22.67;100060.19;5097775;28;943;-39
2021/03/22 00:18:37;;;;;;;;;;;;;;;25.97;22.54;100061.19;5098493;28;814;-40
2021/03/22 00:21:03;;;;;;;;;;;;;;;26.07;22.53;100055.47;5079552;28;818;-38
2021/03/22 00:23:28;;;;;;;;;;;;;;;26.31;22.14;100056.91;5098431;28;834;-39
2021/03/22 00:25:53;;;;;;;;;;;;;;;26.02;22.33;100046.13;5098043;28;1909;-38
2021/03/22 00:28:19;;;;;;;;;;;;;;;25.96;22.47;100038.78;5098362;28;851;-39
2021/03/22 00:30:44;;;;;;;;;;;;;;;25.82;22.49;100026.22;5082106;28;1191;-38
2021/03/22 00:33:10;;;;;;;;;;;;;;;25.72;22.97;100018.44;5077018;28;747;-39
2021/03/22 00:35:35;;;;;;;;;;;;;;;25.99;22.71;100021.41;5078026;28;795;-39
2021/03/22 00:38:01;;;;;;;;;;;;;;;26.34;22.17;100020.69;5060333;28;740;-40
2021/03/22 00:40:27;;;;;;;;;;;;;;;25.96;22.42;100011.81;5077865;28;1004;-40
2021/03/22 00:42:52;;;;;;;;;;;;;;;25.65;22.90;100007.59;5077284;28;842;-39
2021/03/22 00:45:18;;;;;;;;;;;;;;;25.59;22.82;100005.66;5089404;28;1917;-40
2021/03/22 00:47:43;;;;;;;;;;;;;;;25.77;22.88;100002.53;5097980;28;825;-39
2021/03/22 00:50:09;;;;;;;;;;;;;;;26.07;22.47;99993.47;5097267;28;1165;-40
2021/03/22 00:52:34;;;;;;;;;;;;;;;26.40;22.01;99993.78;5097617;28;832;-38
2021/03/22 00:54:59;;;;;;;;;;;;;;;25.98;22.35;99995.47;5097863;28;894;-40
2021/03/22 00:57:25;;;;;;;;;;;;;;;25.72;22.76;99980.72;5097790;28;822;-40
2021/03/22 00:59:50;;;;;;;;;;;;;;;25.62;22.74;99972.94;5089230;28;954;-40
2021/03/22 01:02:15;;;;;;;;;;;;;;;25.05;24.03;99960.09;5077425;28;763;-39
2021/03/22 01:04:41;;;;;;;;;;;;;;;25.08;24.15;99959.72;5077028;28;1905;-41
2021/03/22 01:07:06;;;;;;;;;;;;;;;25.05;24.37;99949.34;5077189;28;815;-38
2021/03/22 01:09:32;;;;;;;;;;;;;;;25.53;23.54;99943.44;5082468;28;1088;-39
2021/03/22 01:11:57;;;;;;;;;;;;;;;25.80;22.79;99930.25;5097157;28;731;-41
2021/03/22 01:14:22;;;;;;;;;;;;;;;25.94;22.67;99921.44;5092975;28;958;-39
2021/03/22 01:16:48;;;;;;;;;;;;;;;25.79;22.83;99912.41;5077189;28;790;-41
2021/03/22 01:19:14;;;;;;;;;;;;;;;25.35;23.62;99905.34;5076284;28;835;-41
2021/03/22 01:21:40;;;;;;;;;;;;;;;26.29;22.43;99900.75;5077035;28;740;-41
2021/03/22 01:24:06;;;;;;;;;;;;;;;26.20;22.48;99884.91;5076716;28;1905;-41
2021/03/22 01:26:32;;;;;;;;;;;;;;;25.92;22.78;99878.53;5076591;28;771;-38
2021/03/22 01:28:58;;;;;;;;;;;;;;;26.00;22.60;99866.75;5077623;28;927;-40
2021/03/22 01:31:24;;;;;;;;;;;;;;;25.53;23.26;99861.81;5096939;28;1273;-38
2021/03/22 01:33:51;;;;;;;;;;;;;;;24.90;24.44;99847.97;5096408;28;1121;-41
2021/03/22 01:36:24;;;;;;;;;;;;;;;24.81;24.50;99846.38;5096659;28;816;-41
2021/03/22 01:38:49;;;;;;;;;;;;;;;25.66;23.48;99840.41;5096753;28;835;-40
2021/03/22 01:41:21;;;;;;;;;;;;;;;25.88;23.17;99836.81;5078745;28;779;-43
2021/03/22 01:44:01;;;;;;;;;;;;;;;26.04;22.82;99831.13;5097041;28;771;-38
2021/03/22 01:46:27;;;;;;;;;;;;;;;25.99;22.89;99819.28;5076784;28;815;-39
2021/03/22 01:48:52;;;;;;;;;;;;;;;25.66;23.33;99821.56;5074896;28;855;-39
2021/03/22 01:51:18;;;;;;;;;;;;;;;25.88;23.22;99816.13;5076716;28;783;-39
2021/03/22 01:53:43;;;;;;;;;;;;;;;26.31;22.67;99802.66;5076713;28;795;-38
2021/03/22 01:56:09;;;;;;;;;;;;;;;26.04;22.54;99792.59;5076069;28;826;-40
2021/03/22 01:58:34;;;;;;;;;;;;;;;25.88;22.96;99780.25;5076891;28;743;-38
2021/03/22 02:00:59;;;;;;;;;;;;;;;25.80;22.95;99790.16;5094338;28;955;-40
2021/03/22 02:03:25;;;;;;;;;;;;;;;25.23;24.15;99790.13;5078302;28;821;-39
2021/03/22 02:05:50;;;;;;;;;;;;;;;25.25;24.21;99796.16;5096620;28;1905;-39
2021/03/22 02:08:16;;;;;;;;;;;;;;;26.14;22.69;99792.22;5096644;28;803;-39
2021/03/22 02:10:42;;;;;;;;;;;;;;;26.15;22.48;99781.25;5063161;28;1132;-39
2021/03/22 02:13:08;;;;;;;;;;;;;;;25.91;22.96;99779.84;5058182;28;819;-39
2021/03/22 02:15:33;;;;;;;;;;;;;;;25.82;22.92;99767.59;5076140;28;959;-39
2021/03/22 02:17:58;;;;;;;;;;;;;;;25.12;24.18;99755.66;5057977;28;887;-39
2021/03/22 02:20:44;;;;;;;;;;;;;;;24.97;24.52;99744.97;5076662;28;747;-39
2021/03/22 02:23:14;;;;;;;;;;;;;;;25.46;23.80;99740.59;5044504;28;1177;-39
2021/03/22 02:25:46;;;;;;;;;;;;;;;26.07;22.65;99734.75;5057766;28;1898;-39
2021/03/22 02:28:30;;;;;;;;;;;;;;;25.94;22.84;99749.00;5058195;28;839;-42
2021/03/22 02:30:55;;;;;;;;;;;;;;;25.90;22.95;99744.00;5092732;28;1030;-40
2021/03/22 02:33:39;;;;;;;;;;;;;;;24.95;24.45;99723.66;5096093;28;810;-44
2021/03/22 02:36:04;;;;;;;;;;;;;;;26.09;22.97;99744.28;5096755;28;823;-44
2021/03/22 02:38:34;;;;;;;;;;;;;;;26.48;22.35;99743.84;5095860;28;867;-43
2021/03/22 02:41:00;;;;;;;;;;;;;;;26.09;22.68;99748.88;5077723;28;823;-41
2021/03/22 02:43:25;;;;;;;;;;;;;;;25.88;22.92;99753.31;5078268;28;748;-41
2021/03/22 02:45:53;;;;;;;;;;;;;;;25.77;23.12;99741.25;5061214;28;1918;-41
2021/03/22 02:48:20;;;;;;;;;;;;;;;25.60;23.74;99728.06;5075746;28;774;-44
2021/03/22 02:50:45;;;;;;;;;;;;;;;26.27;22.80;99718.66;5075875;28;775;-40
2021/03/22 02:53:10;;;;;;;;;;;;;;;26.47;22.29;99721.44;5058024;28;822;-42
2021/03/22 02:55:43;;;;;;;;;;;;;;;26.06;22.70;99706.97;5077130;28;803;-41
2021/03/22 02:58:09;;;;;;;;;;;;;;;25.93;23.12;99710.44;5061924;28;805;-42
2021/03/22 03:00:35;;;;;;;;;;;;;;;25.05;24.37;99696.41;5079452;28;955;-41
2021/03/22 03:03:02;;;;;;;;;;;;;;;25.34;24.17;99689.16;5061601;28;784;-42
2021/03/22 03:05:28;;;;;;;;;;;;;;;25.19;24.57;99710.81;5079512;28;1973;-42
2021/03/22 03:08:00;;;;;;;;;;;;;;;25.97;23.28;99709.03;5079427;28;890;-41
2021/03/22 03:10:26;;;;;;;;;;;;;;;25.95;23.09;99703.00;5073975;28;1085;-41
2021/03/22 03:12:51;;;;;;;;;;;;;;;25.95;22.95;99699.44;5099388;28;886;-43
2021/03/22 03:15:16;;;;;;;;;;;;;;;25.85;22.79;99699.81;5087700;28;951;-41
2021/03/22 03:17:42;;;;;;;;;;;;;;;25.09;24.47;99670.75;5079009;28;771;-42
2021/03/22 03:20:08;;;;;;;;;;;;;;;26.21;22.64;99677.16;5079050;28;804;-41
2021/03/22 03:22:33;;;;;;;;;;;;;;;26.44;22.30;99677.88;5079480;28;828;-41
2021/03/22 03:24:59;;;;;;;;;;;;;;;25.97;22.71;99678.53;5078756;28;1960;-42
2021/03/22 03:27:24;;;;;;;;;;;;;;;25.84;23.02;99649.69;5078914;28;826;-41
2021/03/22 03:29:49;;;;;;;;;;;;;;;25.38;23.80;99644.66;5086893;28;923;-41
2021/03/22 03:32:18;;;;;;;;;;;;;;;25.30;24.25;99648.34;5098820;28;1315;-40
2021/03/22 03:34:43;;;;;;;;;;;;;;;25.78;23.33;99640.53;5099627;28;787;-43
2021/03/22 03:37:08;;;;;;;;;;;;;;;26.38;22.68;99647.16;5099170;28;837;-44
2021/03/22 03:39:34;;;;;;;;;;;;;;;26.06;22.63;99642.28;5098739;28;762;-46
2021/03/22 03:41:59;;;;;;;;;;;;;;;25.96;23.08;99645.38;5099070;28;829;-42
2021/03/22 03:44:24;;;;;;;;;;;;;;;25.47;23.81;99653.41;5094483;28;1980;-40
2021/03/22 03:46:50;;;;;;;;;;;;;;;24.77;24.86;99652.28;5078228;28;875;-40
2021/03/22 03:49:15;;;;;;;;;;;;;;;26.02;23.22;99651.81;5078910;28;767;-43
2021/03/22 03:51:40;;;;;;;;;;;;;;;26.25;22.74;99639.84;5078472;28;839;-41
2021/03/22 03:54:06;;;;;;;;;;;;;;;26.08;22.81;99650.16;5078557;28;874;-41
2021/03/22 03:56:31;;;;;;;;;;;;;;;25.87;23.08;99636.66;5078832;28;735;-40
2021/03/22 03:58:57;;;;;;;;;;;;;;;25.40;23.98;99631.84;5078484;28;1482;-41
2021/03/22 04:01:22;;;;;;;;;;;;;;;25.86;23.23;99642.25;5078389;28;778;-48
2021/03/22 04:03:48;;;;;;;;;;;;;;;25.17;22.05;99643.69;5078660;28;830;-46
2021/03/22 04:06:17;;;;;;;;;;;;;;;24.98;21.64;99641.69;5077949;28;1975;-46
2021/03/22 04:08:46;;;;;;;;;;;;;;;23.55;23.17;99642.03;5077709;28;890;-41
2021/03/22 04:11:13;;;;;;;;;;;;;;;23.99;22.29;99629.56;5116893;28;1501;-41
2021/03/22 04:13:38;;;;;;;;;;;;;;;23.95;21.91;99631.81;5118743;28;843;-41
2021/03/22 04:16:04;;;;;;;;;;;;;;;22.56;23.78;99629.34;5099455;28;867;-41
2021/03/22 04:18:29;;;;;;;;;;;;;;;22.34;23.95;99614.94;5098042;28;837;-41
2021/03/22 04:20:55;;;;;;;;;;;;;;;22.29;23.71;99615.47;5098667;28;798;-41
2021/03/22 04:23:20;;;;;;;;;;;;;;;22.65;23.07;99611.41;5098131;28;778;-40
2021/03/22 04:25:45;;;;;;;;;;;;;;;23.12;23.03;99604.06;5098597;28;1972;-40
2021/03/22 04:28:10;;;;;;;;;;;;;;;22.90;23.27;99607.66;5098467;28;752;-41
2021/03/22 04:30:36;;;;;;;;;;;;;;;23.32;23.42;99595.47;5083076;28;1013;-41
2021/03/22 04:33:01;;;;;;;;;;;;;;;23.23;23.07;99597.44;5077985;28;784;-42
2021/03/22 04:35:26;;;;;;;;;;;;;;;23.21;23.13;99607.50;5078030;28;811;-40
2021/03/22 04:37:52;;;;;;;;;;;;;;;23.62;22.69;99604.56;5077559;28;775;-40
2021/03/22 04:40:24;;;;;;;;;;;;;;;22.98;22.83;99605.72;5077483;28;867;-42
2021/03/22 04:42:49;;;;;;;;;;;;;;;21.56;24.14;99603.13;5077888;28;824;-37
2021/03/22 04:45:15;;;;;;;;;;;;;;;20.35;25.81;99593.09;5088552;28;1918;-37
2021/03/22 04:47:40;;;;;;;;;;;;;;;21.43;24.08;99600.16;5098020;28;793;-39
2021/03/22 04:50:06;;;;;;;;;;;;;;;21.93;22.90;99603.50;5097979;28;783;-37
2021/03/22 04:52:31;;;;;;;;;;;;;;;21.35;23.74;99601.88;5097353;28;818;-36
2021/03/22 04:54:57;;;;;;;;;;;;;;;20.83;24.67;99598.59;5097645;28;850;-36
2021/03/22 04:57:23;;;;;;;;;;;;;;;21.46;24.58;99595.31;5097892;28;887;-43
2021/03/22 04:59:48;;;;;;;;;;;;;;;22.78;23.93;99589.31;5089375;28;959;-41
2021/03/22 05:02:14;;;;;;;;;;;;;;;23.18;23.08;99590.94;5077607;28;803;-41
2021/03/22 05:04:39;;;;;;;;;;;;;;;23.84;24.29;99594.69;5077394;28;1901;-43
2021/03/22 05:07:04;;;;;;;;;;;;;;;23.76;24.61;99587.56;5076829;28;744;-43
2021/03/22 05:09:30;;;;;;;;;;;;;;;24.08;23.98;99593.50;5087178;28;1178;-41
2021/03/22 05:11:55;;;;;;;;;;;;;;;24.53;23.39;99592.50;5118219;28;747;-42
2021/03/22 05:14:20;;;;;;;;;;;;;;;25.35;22.40;99602.00;5109395;28;957;-41
2021/03/22 05:16:46;;;;;;;;;;;;;;;25.97;21.72;99590.47;5077193;28;727;-38
2021/03/22 05:19:11;;;;;;;;;;;;;;;26.28;21.38;99596.31;5076684;28;783;-40
2021/03/22 05:21:36;;;;;;;;;;;;;;;26.42;21.36;99575.63;5077185;28;823;-40
2021/03/22 05:24:01;;;;;;;;;;;;;;;26.58;21.08;99570.81;5076688;28;1955;-43
2021/03/22 05:26:27;;;;;;;;;;;;;;;26.74;21.03;99570.41;5076867;28;784;-41
2021/03/22 05:28:52;;;;;;;;;;;;;;;25.75;22.33;99568.22;5076768;28;506;-40
2021/03/22 05:31:17;;;;;;;;;;;;;;;25.63;22.75;99566.09;5076435;28;1265;-38
2021/03/22 05:33:42;;;;;;;;;;;;;;;26.45;21.82;99564.41;5076878;28;822;-40
2021/03/22 05:36:08;;;;;;;;;;;;;;;26.81;21.10;99545.31;5076669;28;763;-41
2021/03/22 05:38:33;;;;;;;;;;;;;;;26.95;21.35;99541.53;5076051;28;502;-41
2021/03/22 05:41:02;;;;;;;;;;;;;;;27.10;21.16;99541.31;5076680;28;760;-41
2021/03/22 05:43:34;;;;;;;;;;;;;;;27.20;21.13;99543.56;5058993;28;805;-42
2021/03/22 05:45:59;;;;;;;;;;;;;;;26.79;21.49;99534.72;5075819;28;1906;-41
2021/03/22 05:48:40;;;;;;;;;;;;;;;26.33;21.95;99539.94;5096978;28;763;-42
2021/03/22 05:51:24;;;;;;;;;;;;;;;26.70;21.55;99534.09;5096966;28;833;-40
2021/03/22 05:53:55;;;;;;;;;;;;;;;26.95;21.35;99527.19;5096705;28;867;-40
2021/03/22 05:56:25;;;;;;;;;;;;;;;27.04;21.11;99519.75;5078885;28;846;-41
2021/03/22 05:58:57;;;;;;;;;;;;;;;26.87;21.68;99525.56;5078653;28;795;-44
2021/03/22 06:01:36;;;;;;;;;;;;;;;27.42;20.90;99540.56;5075948;28;775;-41
2021/03/22 06:04:09;;;;;;;;;;;;;;;27.52;20.65;99542.81;5074014;28;858;-44
2021/03/22 06:06:35;;;;;;;;;;;;;;;27.02;21.58;99537.00;5074901;28;847;-41
2021/03/22 06:09:19;;;;;;;;;;;;;;;27.04;21.30;99530.53;5075562;28;1532;-44
2021/03/22 06:12:06;;;;;;;;;;;;;;;27.35;21.08;99515.47;5078392;28;754;-44
2021/03/22 06:14:38;;;;;;;;;;;;;;;27.66;20.88;99515.72;5072155;28;942;-41
2021/03/22 06:17:25;;;;;;;;;;;;;;;27.70;20.48;99517.81;5075874;28;884;-43
2021/03/22 06:19:53;;;;;;;;;;;;;;;27.73;20.59;99517.38;5057911;28;839;-40
2021/03/22 06:22:31;;;;;;;;;;;;;;;27.68;20.50;99516.31;5058150;28;820;-40
2021/03/22 06:24:59;;;;;;;;;;;;;;;27.22;21.34;99516.34;5076285;28;1898;-42
2021/03/22 06:27:25;;;;;;;;;;;;;;;27.25;21.16;99516.75;5058305;28;807;-40
2021/03/22 06:29:51;;;;;;;;;;;;;;;27.60;20.81;99523.66;5083938;28;943;-40
2021/03/22 06:32:17;;;;;;;;;;;;;;;27.66;20.62;99524.66;5100593;28;1106;-40
2021/03/22 06:34:45;;;;;;;;;;;;;;;27.65;20.77;99528.41;5100321;28;806;-40
2021/03/22 06:37:13;;;;;;;;;;;;;;;27.65;21.09;99535.66;5100074;28;827;-39
2021/03/22 06:39:48;;;;;;;;;;;;;;;27.85;20.46;99531.03;5082732;28;748;-39
2021/03/22 06:42:23;;;;;;;;;;;;;;;27.33;21.28;99526.47;5099802;28;891;-44
2021/03/22 06:44:49;;;;;;;;;;;;;;;27.10;21.69;99511.63;5092070;28;1909;-45
2021/03/22 06:47:14;;;;;;;;;;;;;;;27.39;20.98;99514.81;5080172;28;838;-40
2021/03/22 06:49:43;;;;;;;;;;;;;;;27.78;20.60;99513.19;5079788;28;849;-41
2021/03/22 06:52:12;;;;;;;;;;;;;;;27.92;20.55;99506.66;5061826;28;759;-37
2021/03/22 06:54:41;;;;;;;;;;;;;;;27.61;21.32;99498.28;5079997;28;780;-43
2021/03/22 06:57:06;;;;;;;;;;;;;;;27.96;20.65;99498.94;5076993;28;904;-42
2021/03/22 06:59:32;;;;;;;;;;;;;;;28.23;20.44;99498.72;5086558;28;957;-42
2021/03/22 07:01:57;;;;;;;;;;;;;;;28.23;20.44;99493.31;5099788;28;1111;-43
2021/03/22 07:04:32;;;;;;;;;;;;;;;28.41;20.08;99487.13;5062686;28;1922;-43
2021/03/22 07:07:05;;;;;;;;;;;;;;;28.44;20.39;99486.72;5092469;28;1451;-42
2021/03/22 07:09:31;;;;;;;;;;;;;;;28.57;20.06;99476.81;5093319;28;885;-44
2021/03/22 07:11:56;;;;;;;;;;;;;;;27.90;20.63;99470.91;5079801;28;977;-43
2021/03/22 07:14:25;;;;;;;;;;;;;;;27.74;20.92;99451.47;5093697;28;808;-44
2021/03/22 07:17:03;;;;;;;;;;;;;;;28.18;20.33;99448.00;5091340;28;809;-42
2021/03/22 07:19:28;;;;;;;;;;;;;;;28.35;20.30;99458.28;5093094;28;825;-43
2021/03/22 07:21:54;;;;;;;;;;;;;;;28.39;20.44;99458.66;5078220;28;816;-42
2021/03/22 07:24:33;;;;;;;;;;;;;;;28.44;20.06;99450.72;5080698;28;1906;-41
2021/03/22 07:27:05;;;;;;;;;;;;;;;28.65;20.05;99448.59;5074801;28;893;-42
2021/03/22 07:29:30;;;;;;;;;;;;;;;28.23;20.29;99447.34;5082264;28;825;-43
2021/03/22 07:32:08;;;;;;;;;;;;;;;27.78;20.89;99445.66;5093029;28;1230;-42
2021/03/22 07:34:48;;;;;;;;;;;;;;;27.57;21.20;99455.72;5071493;28;842;-43
2021/03/22 07:37:31;;;;;;;;;;;;;;;27.52;20.98;99456.38;5090295;28;824;-43
2021/03/22 07:40:01;;;;;;;;;;;;;;;27.54;21.37;99448.06;5082783;28;830;-42
2021/03/22 07:42:32;;;;;;;;;;;;;;;27.89;20.72;99444.94;5070073;28;836;-44
2021/03/22 07:44:57;;;;;;;;;;;;;;;28.24;20.22;99446.31;5076197;28;1967;-45
2021/03/22 07:47:31;;;;;;;;;;;;;;;28.40;19.93;99446.78;5097768;28;872;-38
2021/03/22 07:49:57;;;;;;;;;;;;;;;28.39;20.15;99454.09;5097408;28;828;-41
2021/03/22 07:52:31;;;;;;;;;;;;;;;28.40;19.92;99461.16;5088734;28;830;-42
2021/03/22 07:54:56;;;;;;;;;;;;;;;28.64;19.99;99453.22;5090849;28;871;-43
2021/03/22 07:57:40;;;;;;;;;;;;;;;28.25;20.33;99453.34;5097384;28;872;-45
2021/03/22 08:00:12;;;;;;;;;;;;;;;27.77;20.40;99450.22;5092323;28;839;-43
2021/03/22 08:02:40;;;;;;;;;;;;;;;28.18;20.55;99444.47;5098070;28;494;-42
2021/03/22 08:05:26;;;;;;;;;;;;;;;28.62;19.84;99443.66;5097999;28;1898;-42
2021/03/22 08:07:57;;;;;;;;;;;;;;;28.67;19.64;99443.81;5056599;28;1168;-43
2021/03/22 08:10:28;;;;;;;;;;;;;;;28.66;19.82;99448.38;5085816;28;989;-41
2021/03/22 08:13:00;;;;;;;;;;;;;;;28.80;19.92;99448.22;5077538;28;856;-43
2021/03/22 08:15:28;;;;;;;;;;;;;;;28.79;19.52;99450.13;5072337;28;1128;-43
2021/03/22 08:17:57;;;;;;;;;;;;;;;28.86;19.65;99455.47;5098405;28;799;-43
2021/03/22 08:20:26;;;;;;;;;;;;;;;28.18;20.17;99456.13;5079983;28;743;-43
2021/03/22 08:23:03;;;;;;;;;;;;;;;28.11;20.58;99447.25;5080376;28;754;-43
2021/03/22 08:25:36;;;;;;;;;;;;;;;28.41;20.40;99437.66;5079897;28;1901;-42
2021/03/22 08:28:14;;;;;;;;;;;;;;;28.43;19.92;99449.88;5079632;28;787;-44
2021/03/22 08:30:42;;;;;;;;;;;;;;;28.57;19.71;99444.34;5080503;28;1278;-43
2021/03/22 08:33:27;;;;;;;;;;;;;;;28.66;19.72;99428.63;5059618;28;843;-41
2021/03/22 08:36:04;;;;;;;;;;;;;;;28.68;19.84;99432.75;5077089;28;811;-43
2021/03/22 08:38:41;;;;;;;;;;;;;;;28.09;20.29;99433.94;5077881;28;796;-42
2021/03/22 08:41:09;;;;;;;;;;;;;;;27.82;20.45;99430.63;5077575;28;823;-43
2021/03/22 08:43:34;;;;;;;;;;;;;;;28.18;20.15;99404.75;5059757;28;804;-45
2021/03/22 08:45:59;;;;;;;;;;;;;;;28.42;20.08;99415.78;5077371;28;1992;-43
2021/03/22 08:48:25;;;;;;;;;;;;;;;28.57;19.82;99422.69;5077368;28;751;-43
2021/03/22 08:50:51;;;;;;;;;;;;;;;28.32;20.36;99429.78;5076757;28;752;-44
2021/03/22 08:53:18;;;;;;;;;;;;;;;28.53;20.09;99429.63;5058852;28;815;-43
2021/03/22 08:55:47;;;;;;;;;;;;;;;28.48;20.08;99422.16;5077267;28;803;-42
2021/03/22 08:58:31;;;;;;;;;;;;;;;28.52;19.67;99428.78;5076610;28;842;-44
2021/03/22 09:01:08;;;;;;;;;;;;;;;27.85;20.40;99419.38;5093758;28;1009;-43
2021/03/22 09:03:34;;;;;;;;;;;;;;;27.66;20.69;99413.88;5097632;28;807;-42
2021/03/22 09:06:03;;;;;;;;;;;;;;;27.90;20.67;99408.75;5074029;28;1968;-42
2021/03/22 09:08:29;;;;;;;;;;;;;;;28.24;20.13;99405.75;5117505;28;791;-42
2021/03/22 09:10:54;;;;;;;;;;;;;;;28.26;20.06;99406.31;5083998;28;1107;-40
2021/03/22 09:13:29;;;;;;;;;;;;;;;28.38;20.01;99403.75;5076000;28;899;-44
2021/03/22 09:15:59;;;;;;;;;;;;;;;28.46;19.71;99394.53;5077170;28;860;-42
2021/03/22 09:18:24;;;;;;;;;;;;;;;28.41;19.87;99400.59;5096764;28;811;-42
2021/03/22 09:20:49;;;;;;;;;;;;;;;28.46;19.67;99395.31;5096663;28;787;-41
2021/03/22 09:23:30;;;;;;;;;;;;;;;28.44;19.65;99400.16;5097111;28;806;-42
2021/03/22 09:25:56;;;;;;;;;;;;;;;28.45;19.39;99387.44;5078029;28;1968;-44
2021/03/22 09:28:24;;;;;;;;;;;;;;;28.44;19.60;99385.81;5078205;28;907;-37
2021/03/22 09:30:54;;;;;;;;;;;;;;;28.37;19.53;99388.56;5080476;28;1038;-41
2021/03/22 09:33:37;;;;;;;;;;;;;;;28.34;19.64;99389.84;5087987;28;927;-40
2021/03/22 09:36:04;;;;;;;;;;;;;;;28.23;19.69;99390.56;5117025;28;855;-40
2021/03/22 09:38:37;;;;;;;;;;;;;;;28.33;19.38;99395.47;5116950;28;731;-39
2021/03/22 09:41:03;;;;;;;;;;;;;;;28.31;19.42;99395.66;5098880;28;748;-39
2021/03/22 09:43:28;;;;;;;;;;;;;;;28.38;19.48;99394.81;5117229;28;818;-40
2021/03/22 09:45:54;;;;;;;;;;;;;;;28.43;19.46;99397.66;5081142;28;1917;-39
2021/03/22 09:48:20;;;;;;;;;;;;;;;28.36;19.23;99398.56;5101695;28;986;-44
2021/03/22 09:51:00;;;;;;;;;;;;;;;28.39;19.38;99401.88;5077492;28;808;-40
2021/03/22 09:53:44;;;;;;;;;;;;;;;28.38;19.32;99408.34;5075797;28;828;-41
2021/03/22 09:56:20;;;;;;;;;;;;;;;28.56;19.14;99402.91;5075031;28;843;-41
2021/03/22 09:58:46;;;;;;;;;;;;;;;28.65;18.90;99411.56;5077486;28;817;-40
2021/03/22 10:01:30;;;;;;;;;;;;;;;28.78;18.92;99415.19;5084243;28;959;-41
2021/03/22 10:04:11;;;;;;;;;;;;;;;28.69;19.03;99415.50;5086874;28;827;-39
2021/03/22 10:06:54;;;;;;;;;;;;;;;28.85;19.09;99429.44;5086989;28;871;-39
2021/03/22 10:09:22;;;;;;;;;;;;;;;28.77;18.96;99424.34;5074045;28;1163;-38
2021/03/22 10:11:48;;;;;;;;;;;;;;;28.76;19.19;99434.31;5078148;28;852;-38
2021/03/22 10:14:17;;;;;;;;;;;;;;;28.79;19.10;99438.47;5092012;28;813;-40
2021/03/22 10:16:43;;;;;;;;;;;;;;;28.88;18.71;99433.59;5084956;28;834;-39
2021/03/22 10:19:37;;;;;;;;;;;;;;;28.76;18.83;99412.66;5083631;28;820;-40
2021/03/22 10:22:12;;;;;;;;;;;;;;;28.58;19.42;99433.28;5086831;28;1068;-37
2021/03/22 10:24:56;;;;;;;;;;;;;;;28.85;18.83;99429.44;5075338;28;1901;-38
2021/03/22 10:27:32;;;;;;;;;;;;;;;28.83;19.04;99440.50;5069081;28;805;-39
2021/03/22 10:30:07;;;;;;;;;;;;;;;28.81;18.92;99430.97;5092076;28;871;-39
2021/03/22 10:32:33;;;;;;;;;;;;;;;28.76;19.23;99422.69;5095259;28;1271;-41
2021/03/22 10:35:09;;;;;;;;;;;;;;;28.88;19.12;99415.44;5078615;28;783;-41
2021/03/22 10:37:39;;;;;;;;;;;;;;;28.93;18.63;99455.38;5096207;28;806;-40
2021/03/22 10:40:22;;;;;;;;;;;;;;;28.76;17.97;99384.81;5077084;28;947;-40
2021/03/22 10:42:48;;;;;;;;;;;;;;;28.78;17.93;99380.81;5076005;28;746;-36
2021/03/22 10:45:17;;;;;;;;;;;;;;;28.71;18.25;99378.19;5087015;28;1961;-36
2021/03/22 10:47:43;;;;;;;;;;;;;;;28.52;18.77;99361.16;5095984;28;767;-36
2021/03/22 10:50:12;;;;;;;;;;;;;;;28.45;21.48;99363.94;5096321;28;821;-35
2021/03/22 10:52:37;;;;;;;;;;;;;;;28.68;22.57;99345.34;5096576;28;747;-35
2021/03/22 10:55:03;;;;;;;;;;;;;;;28.64;23.69;99345.00;5095680;28;905;-45
2021/03/22 10:57:37;;;;;;;;;;;;;;;28.69;23.25;99331.59;5096384;28;795;-36
2021/03/22 11:00:15;;;;;;;;;;;;;;;28.76;23.30;99344.22;5086140;28;919;-35
2021/03/22 11:02:49;;;;;;;;;;;;;;;28.55;23.22;99340.94;5077425;28;892;-36
2021/03/22 11:05:15;;;;;;;;;;;;;;;28.53;22.60;99329.53;5068974;28;1961;-37
2021/03/22 11:07:40;;;;;;;;;;;;;;;28.56;22.41;99310.94;5075656;28;787;-36
2021/03/22 11:10:12;;;;;;;;;;;;;;;28.32;22.63;99309.97;5067127;28;1060;-37
2021/03/22 11:12:37;;;;;;;;;;;;;;;29.18;21.79;99308.22;5094018;28;848;-38
2021/03/22 11:15:24;;;;;;;;;;;;;;;29.63;21.01;99311.53;5067516;28;997;-40
2021/03/22 11:17:50;;;;;;;;;;;;;;;29.32;21.20;99304.28;5079610;28;1080;-36
2021/03/22 11:20:16;;;;;;;;;;;;;;;29.57;20.37;99297.81;5115827;28;885;-41
2021/03/22 11:22:42;;;;;;;;;;;;;;;29.46;20.50;99310.28;5078700;28;996;-37
2021/03/22 11:25:26;;;;;;;;;;;;;;;29.54;20.23;99313.72;5078537;28;1963;-37
2021/03/22 11:27:53;;;;;;;;;;;;;;;29.58;19.96;99314.88;5078662;28;854;-38
2021/03/22 11:30:18;;;;;;;;;;;;;;;29.94;19.72;99306.78;5065289;28;931;-38
2021/03/22 11:32:47;;;;;;;;;;;;;;;29.73;19.79;99297.38;5056817;28;1289;-36
2021/03/22 11:35:28;;;;;;;;;;;;;;;29.79;19.54;99305.41;5041272;28;769;-36
2021/03/22 11:37:54;;;;;;;;;;;;;;;29.89;19.33;99307.50;5058961;28;759;-40
2021/03/22 11:40:21;;;;;;;;;;;;;;;29.97;19.26;99309.03;5077405;28;907;-38
2021/03/22 11:43:05;;;;;;;;;;;;;;;30.08;19.25;99311.97;5077234;28;864;-41
2021/03/22 11:45:33;;;;;;;;;;;;;;;30.15;18.75;99310.75;5065000;28;1966;-38
2021/03/22 11:47:59;;;;;;;;;;;;;;;30.21;18.87;99308.19;5058505;28;823;-37
2021/03/22 11:50:34;;;;;;;;;;;;;;;29.93;19.05;99310.53;5058784;28;752;-41
2021/03/22 11:53:01;;;;;;;;;;;;;;;30.24;18.73;99300.41;5054344;28;1147;-38
2021/03/22 11:55:33;;;;;;;;;;;;;;;30.24;18.64;99300.41;5076615;28;849;-37
2021/03/22 11:57:59;;;;;;;;;;;;;;;30.37;18.48;99295.75;5078535;28;834;-37
2021/03/22 12:00:26;;;;;;;;;;;;;;;30.25;18.18;99285.75;5071741;28;860;-37
2021/03/22 12:02:53;;;;;;;;;;;;;;;30.38;18.30;99273.81;5078171;28;750;-37
2021/03/22 12:05:25;;;;;;;;;;;;;;;30.38;18.14;99265.66;5077038;28;1902;-37
2021/03/22 12:07:51;;;;;;;;;;;;;;;30.44;18.27;99282.88;5078253;28;738;-38
2021/03/22 12:10:22;;;;;;;;;;;;;;;30.23;18.21;99282.47;5077939;28;1136;-38
2021/03/22 12:12:48;;;;;;;;;;;;;;;30.42;18.00;99296.69;5077792;28;872;-37
2021/03/22 12:15:14;;;;;;;;;;;;;;;30.39;18.01;99294.47;5066226;28;1176;-41
2021/03/22 12:17:39;;;;;;;;;;;;;;;30.47;18.00;99300.56;5076040;28;842;-36
2021/03/22 12:20:06;;;;;;;;;;;;;;;30.52;17.79;99316.94;5075936;28;980;-39
2021/03/22 12:22:31;;;;;;;;;;;;;;;30.39;18.10;99337.03;5078393;28;772;-41
2021/03/22 12:24:56;;;;;;;;;;;;;;;30.40;17.89;99350.38;5076122;28;1960;-35
2021/03/22 12:27:22;;;;;;;;;;;;;;;30.39;17.80;99335.16;5075168;28;927;-36
2021/03/22 12:29:47;;;;;;;;;;;;;;;30.55;17.86;99346.31;5069719;28;939;-35
2021/03/22 12:32:23;;;;;;;;;;;;;;;30.45;17.79;99359.69;5057444;28;1213;-35
2021/03/22 12:34:48;;;;;;;;;;;;;;;30.38;17.84;99336.22;5057603;28;909;-35
2021/03/22 12:37:24;;;;;;;;;;;;;;;30.41;17.55;99338.44;5058122;28;856;-42
2021/03/22 12:39:50;;;;;;;;;;;;;;;30.38;17.60;99363.34;5057147;28;899;-36
2021/03/22 12:42:15;;;;;;;;;;;;;;;30.36;17.40;99343.78;5057194;28;883;-35
2021/03/22 12:44:41;;;;;;;;;;;;;;;30.19;17.83;99351.78;5059769;28;1910;-35
2021/03/22 12:47:06;;;;;;;;;;;;;;;30.39;17.57;99335.16;5058932;28;852;-35
2021/03/22 12:49:31;;;;;;;;;;;;;;;30.35;17.47;99341.28;5073053;28;864;-43
2021/03/22 12:51:57;;;;;;;;;;;;;;;30.34;17.47;99328.78;5067288;28;896;-37
2021/03/22 12:54:22;;;;;;;;;;;;;;;29.85;17.52;99321.75;5058462;28;908;-35
2021/03/22 12:56:47;;;;;;;;;;;;;;;30.20;17.33;99337.19;5066720;28;902;-34
2021/03/22 12:59:25;;;;;;;;;;;;;;;30.33;17.19;99327.97;5061140;28;870;-34
2021/03/22 13:01:50;;;;;;;;;;;;;;;30.30;17.13;99336.59;5067975;28;860;-35
2021/03/22 13:04:15;;;;;;;;;;;;;;;30.34;17.30;99331.50;5058830;28;1076;-35
2021/03/22 13:06:41;;;;;;;;;;;;;;;30.51;17.30;99332.38;5059791;28;1910;-37
2021/03/22 13:09:06;;;;;;;;;;;;;;;30.45;17.23;99335.28;5058048;28;1076;-38
2021/03/22 13:11:31;;;;;;;;;;;;;;;30.41;17.15;99330.28;5077170;28;802;-41
2021/03/22 13:13:56;;;;;;;;;;;;;;;30.48;17.25;99338.31;5066572;28;857;-40